sensor_id;sensor_type;location;lat;lon;timestamp;P1;durP1;ratioP1;P2;durP2;ratioP2
54037;SDS011;39954;48.844;9.726;2022-10-13T17:59:53;36.05;;;13.77;;
54037;SDS011;39954;48.844;9.726;2022-10-13T18:00:58;42.63;;;15.32;;
54037;SDS011;39954;48.844;9.726;2022-10-13T18:02:13;43.35;;;20.70;;
54037;SDS011;39954;48.844;9.726;2022-10-13T18:03:19;48.65;;;20.52;;
54037;SDS011;39954;48.844;9.726;2022-10-13T18:04:21;48.67;;;20.30;;
54037;SDS011;39954;48.844;9.726;2022-10-13T18:05:29;58.47;;;20.52;;
54037;SDS011;39954;48.844;9.726;2022-10-13T18:06:32;52.45;;;21.20;;
54037;SDS011;39954;48.844;9.726;2022-10-13T18:07:40;35.20;;;17.67;;
54037;SDS011;39954;48.844;9.726;2022-10-13T18:08:44;57.03;;;19.50;;
54037;SDS011;39954;48.844;9.726;2022-10-13T18:09:49;52.50;;;18.95;;
54037;SDS011;39954;48.844;9.726;2022-10-13T18:10:54;45.13;;;17.48;;
54037;SDS011;39954;48.844;9.726;2022-10-13T18:12:11;42.53;;;17.88;;
54037;SDS011;39954;48.844;9.726;2022-10-13T18:13:16;45.88;;;18.77;;
54037;SDS011;39954;48.844;9.726;2022-10-13T18:14:18;58.45;;;21.08;;
54037;SDS011;39954;48.844;9.726;2022-10-13T18:15:26;54.78;;;23.20;;
54037;SDS011;39954;48.844;9.726;2022-10-13T18:16:28;67.22;;;28.35;;
54037;SDS011;39954;48.844;9.726;2022-10-13T18:17:33;74.18;;;33.65;;
54037;SDS011;39954;48.844;9.726;2022-10-13T18:18:38;97.35;;;41.70;;
54037;SDS011;39954;48.844;9.726;2022-10-13T18:19:40;147.43;;;54.08;;
54037;SDS011;39954;48.844;9.726;2022-10-13T18:20:45;128.90;;;58.45;;
54037;SDS011;39954;48.844;9.726;2022-10-13T18:21:47;161.75;;;67.93;;
54037;SDS011;39954;48.844;9.726;2022-10-13T18:22:53;164.48;;;69.32;;
54037;SDS011;39954;48.844;9.726;2022-10-13T18:23:56;136.88;;;62.30;;
54037;SDS011;39954;48.844;9.726;2022-10-13T18:25:02;172.95;;;74.50;;
54037;SDS011;39954;48.844;9.726;2022-10-13T18:26:05;144.57;;;60.88;;
54037;SDS011;39954;48.844;9.726;2022-10-13T18:27:12;113.97;;;49.88;;
54037;SDS011;39954;48.844;9.726;2022-10-13T18:28:16;87.18;;;39.10;;
54037;SDS011;39954;48.844;9.726;2022-10-13T18:29:19;103.00;;;42.83;;
54037;SDS011;39954;48.844;9.726;2022-10-13T18:30:23;91.90;;;45.65;;
54037;SDS011;39954;48.844;9.726;2022-10-13T18:31:31;73.05;;;31.10;;
54037;SDS011;39954;48.844;9.726;2022-10-13T18:32:37;81.30;;;33.53;;
54037;SDS011;39954;48.844;9.726;2022-10-13T18:33:42;74.57;;;33.45;;
54037;SDS011;39954;48.844;9.726;2022-10-13T18:34:44;64.47;;;30.55;;
54037;SDS011;39954;48.844;9.726;2022-10-13T18:35:49;46.33;;;25.58;;
54037;SDS011;39954;48.844;9.726;2022-10-13T18:36:51;71.82;;;31.27;;
54037;SDS011;39954;48.844;9.726;2022-10-13T18:37:57;51.88;;;30.30;;
54037;SDS011;39954;48.844;9.726;2022-10-13T18:39:00;64.88;;;29.70;;
54037;SDS011;39954;48.844;9.726;2022-10-13T18:40:07;80.68;;;33.25;;
54037;SDS011;39954;48.844;9.726;2022-10-13T18:41:10;51.45;;;25.92;;
54037;SDS011;39954;48.844;9.726;2022-10-13T18:42:15;52.20;;;24.17;;
54037;SDS011;39954;48.844;9.726;2022-10-13T18:43:20;64.93;;;23.75;;
54037;SDS011;39954;48.844;9.726;2022-10-13T18:44:22;56.47;;;23.65;;
54037;SDS011;39954;48.844;9.726;2022-10-13T18:45:27;54.15;;;21.77;;
54037;SDS011;39954;48.844;9.726;2022-10-13T18:46:33;60.97;;;23.98;;
54037;SDS011;39954;48.844;9.726;2022-10-13T18:47:40;64.47;;;25.77;;
54037;SDS011;39954;48.844;9.726;2022-10-13T18:48:44;64.97;;;26.50;;
54037;SDS011;39954;48.844;9.726;2022-10-13T18:49:49;67.72;;;29.27;;
54037;SDS011;39954;48.844;9.726;2022-10-13T18:50:54;56.78;;;23.42;;
54037;SDS011;39954;48.844;9.726;2022-10-13T18:51:57;50.20;;;21.90;;
54037;SDS011;39954;48.844;9.726;2022-10-13T18:53:02;47.42;;;20.85;;
54037;SDS011;39954;48.844;9.726;2022-10-13T18:54:04;51.30;;;21.60;;
54037;SDS011;39954;48.844;9.726;2022-10-13T18:55:09;68.40;;;22.65;;
54037;SDS011;39954;48.844;9.726;2022-10-13T18:56:15;47.42;;;22.38;;
54037;SDS011;39954;48.844;9.726;2022-10-13T18:57:18;55.35;;;22.08;;
54037;SDS011;39954;48.844;9.726;2022-10-13T18:58:23;48.65;;;21.88;;
54037;SDS011;39954;48.844;9.726;2022-10-13T18:59:25;54.25;;;23.50;;
54037;SDS011;39954;48.844;9.726;2022-10-13T19:00:30;52.53;;;23.70;;
54037;SDS011;39954;48.844;9.726;2022-10-13T19:01:35;57.33;;;23.73;;
54037;SDS011;39954;48.844;9.726;2022-10-13T19:02:41;64.13;;;23.42;;
54037;SDS011;39954;48.844;9.726;2022-10-13T19:03:46;55.30;;;23.75;;
54037;SDS011;39954;48.844;9.726;2022-10-13T19:04:52;55.17;;;22.65;;
54037;SDS011;39954;48.844;9.726;2022-10-13T19:05:54;50.08;;;20.25;;
54037;SDS011;39954;48.844;9.726;2022-10-13T19:06:59;68.90;;;21.67;;
54037;SDS011;39954;48.844;9.726;2022-10-13T19:08:04;62.05;;;21.40;;
54037;SDS011;39954;48.844;9.726;2022-10-13T19:09:10;47.33;;;20.73;;
54037;SDS011;39954;48.844;9.726;2022-10-13T19:10:17;53.65;;;20.55;;
54037;SDS011;39954;48.844;9.726;2022-10-13T19:11:23;41.25;;;20.25;;
54037;SDS011;39954;48.844;9.726;2022-10-13T19:12:28;48.03;;;20.35;;
54037;SDS011;39954;48.844;9.726;2022-10-13T19:13:32;47.13;;;20.60;;
54037;SDS011;39954;48.844;9.726;2022-10-13T19:14:34;42.67;;;19.30;;
54037;SDS011;39954;48.844;9.726;2022-10-13T19:15:39;38.53;;;19.00;;
54037;SDS011;39954;48.844;9.726;2022-10-13T19:16:44;46.88;;;18.35;;
54037;SDS011;39954;48.844;9.726;2022-10-13T19:17:48;63.28;;;18.65;;
54037;SDS011;39954;48.844;9.726;2022-10-13T19:18:50;52.15;;;18.60;;
54037;SDS011;39954;48.844;9.726;2022-10-13T19:19:55;46.45;;;18.40;;
54037;SDS011;39954;48.844;9.726;2022-10-13T19:21:00;44.30;;;18.92;;
54037;SDS011;39954;48.844;9.726;2022-10-13T19:22:02;47.42;;;20.58;;
54037;SDS011;39954;48.844;9.726;2022-10-13T19:23:10;46.17;;;21.05;;
54037;SDS011;39954;48.844;9.726;2022-10-13T19:24:14;38.17;;;22.02;;
54037;SDS011;39954;48.844;9.726;2022-10-13T19:25:19;59.38;;;22.42;;
54037;SDS011;39954;48.844;9.726;2022-10-13T19:26:22;53.65;;;20.27;;
54037;SDS011;39954;48.844;9.726;2022-10-13T19:27:30;45.30;;;20.75;;
54037;SDS011;39954;48.844;9.726;2022-10-13T19:28:34;40.03;;;22.40;;
54037;SDS011;39954;48.844;9.726;2022-10-13T19:29:37;47.22;;;23.92;;
54037;SDS011;39954;48.844;9.726;2022-10-13T19:30:42;50.92;;;26.20;;
54037;SDS011;39954;48.844;9.726;2022-10-13T19:31:49;51.85;;;26.83;;
54037;SDS011;39954;48.844;9.726;2022-10-13T19:32:54;57.33;;;28.90;;
54037;SDS011;39954;48.844;9.726;2022-10-13T19:33:56;64.80;;;31.88;;
54037;SDS011;39954;48.844;9.726;2022-10-13T19:35:04;59.92;;;31.00;;
54037;SDS011;39954;48.844;9.726;2022-10-13T19:36:09;62.85;;;30.38;;
54037;SDS011;39954;48.844;9.726;2022-10-13T19:37:13;63.05;;;28.13;;
54037;SDS011;39954;48.844;9.726;2022-10-13T19:38:19;62.78;;;27.00;;
54037;SDS011;39954;48.844;9.726;2022-10-13T19:39:22;82.43;;;27.85;;
54037;SDS011;39954;48.844;9.726;2022-10-13T19:40:28;55.80;;;26.05;;
54037;SDS011;39954;48.844;9.726;2022-10-13T19:41:30;66.43;;;26.73;;
54037;SDS011;39954;48.844;9.726;2022-10-13T19:42:36;73.25;;;26.48;;
54037;SDS011;39954;48.844;9.726;2022-10-13T19:43:38;70.75;;;26.33;;
